sensor_id;sensor_type;location;lat;lon;timestamp;pressure;altitude;pressure_sealevel;temperature;humidity
6144;BME280;3103;49.492;8.474;2023-03-04T00:02:17;101261.28;;;4.32;67.27
6144;BME280;3103;49.492;8.474;2023-03-04T00:04:44;101264.78;;;4.33;67.58
6144;BME280;3103;49.492;8.474;2023-03-04T00:07:10;101259.53;;;4.25;68.06
6144;BME280;3103;49.492;8.474;2023-03-04T00:09:44;101264.25;;;4.14;68.06
6144;BME280;3103;49.492;8.474;2023-03-04T00:12:12;101265.78;;;4.09;67.96
6144;BME280;3103;49.492;8.474;2023-03-04T00:14:39;101262.13;;;4.10;67.98
6144;BME280;3103;49.492;8.474;2023-03-04T00:17:06;101258.69;;;4.01;68.33
6144;BME280;3103;49.492;8.474;2023-03-04T00:19:33;101263.91;;;3.95;68.32
6144;BME280;3103;49.492;8.474;2023-03-04T00:22:02;101260.81;;;4.06;68.32
6144;BME280;3103;49.492;8.474;2023-03-04T00:24:30;101266.38;;;4.19;68.21
6144;BME280;3103;49.492;8.474;2023-03-04T00:26:57;101260.81;;;4.06;68.28
6144;BME280;3103;49.492;8.474;2023-03-04T00:29:24;101262.31;;;4.08;67.91
6144;BME280;3103;49.492;8.474;2023-03-04T00:31:51;101268.38;;;3.94;68.58
6144;BME280;3103;49.492;8.474;2023-03-04T00:34:17;101270.69;;;3.66;69.67
6144;BME280;3103;49.492;8.474;2023-03-04T00:36:44;101275.38;;;3.87;68.85
6144;BME280;3103;49.492;8.474;2023-03-04T00:39:12;101269.34;;;3.70;69.44
6144;BME280;3103;49.492;8.474;2023-03-04T00:41:39;101273.50;;;3.65;69.37
6144;BME280;3103;49.492;8.474;2023-03-04T00:44:07;101276.50;;;3.62;69.74
6144;BME280;3103;49.492;8.474;2023-03-04T00:46:33;101277.50;;;3.69;69.25
6144;BME280;3103;49.492;8.474;2023-03-04T00:49:00;101276.06;;;3.50;69.93
6144;BME280;3103;49.492;8.474;2023-03-04T00:51:27;101284.00;;;3.58;69.61
6144;BME280;3103;49.492;8.474;2023-03-04T00:53:53;101279.06;;;3.47;69.86
6144;BME280;3103;49.492;8.474;2023-03-04T00:56:20;101270.31;;;3.38;69.84
6144;BME280;3103;49.492;8.474;2023-03-04T00:58:47;101272.91;;;3.54;69.50
6144;BME280;3103;49.492;8.474;2023-03-04T01:01:14;101273.13;;;3.37;70.29
6144;BME280;3103;49.492;8.474;2023-03-04T01:03:41;101280.06;;;3.46;69.77
6144;BME280;3103;49.492;8.474;2023-03-04T01:06:08;101277.41;;;3.46;69.37
6144;BME280;3103;49.492;8.474;2023-03-04T01:08:37;101283.25;;;3.41;69.90
6144;BME280;3103;49.492;8.474;2023-03-04T01:11:04;101276.75;;;3.52;69.72
6144;BME280;3103;49.492;8.474;2023-03-04T01:13:32;101282.25;;;3.42;69.86
6144;BME280;3103;49.492;8.474;2023-03-04T01:15:59;101272.25;;;3.52;70.08
6144;BME280;3103;49.492;8.474;2023-03-04T01:18:27;101277.00;;;3.26;70.29
6144;BME280;3103;49.492;8.474;2023-03-04T01:20:54;101265.03;;;3.22;70.60
6144;BME280;3103;49.492;8.474;2023-03-04T01:23:21;101271.31;;;3.37;69.97
6144;BME280;3103;49.492;8.474;2023-03-04T01:25:47;101270.75;;;3.50;69.99
6144;BME280;3103;49.492;8.474;2023-03-04T01:28:14;101265.22;;;3.20;70.68
6144;BME280;3103;49.492;8.474;2023-03-04T01:30:41;101257.78;;;3.16;70.69
6144;BME280;3103;49.492;8.474;2023-03-04T01:33:08;101260.09;;;3.19;71.17
6144;BME280;3103;49.492;8.474;2023-03-04T01:35:35;101255.16;;;3.47;70.43
6144;BME280;3103;49.492;8.474;2023-03-04T01:38:01;101259.03;;;3.36;70.83
6144;BME280;3103;49.492;8.474;2023-03-04T01:40:30;101258.69;;;3.39;70.20
6144;BME280;3103;49.492;8.474;2023-03-04T01:42:58;101246.75;;;3.35;70.14
6144;BME280;3103;49.492;8.474;2023-03-04T01:45:25;101247.72;;;3.42;70.27
6144;BME280;3103;49.492;8.474;2023-03-04T01:47:52;101250.50;;;3.49;70.07
6144;BME280;3103;49.492;8.474;2023-03-04T01:50:33;101247.25;;;3.39;70.60
6144;BME280;3103;49.492;8.474;2023-03-04T01:53:02;101245.56;;;3.38;70.49
6144;BME280;3103;49.492;8.474;2023-03-04T01:55:30;101242.88;;;3.46;70.48
6144;BME280;3103;49.492;8.474;2023-03-04T01:57:57;101236.63;;;3.39;70.28
6144;BME280;3103;49.492;8.474;2023-03-04T02:02:58;101235.13;;;3.36;70.33
6144;BME280;3103;49.492;8.474;2023-03-04T02:05:25;101236.34;;;3.25;70.73
6144;BME280;3103;49.492;8.474;2023-03-04T02:07:54;101242.50;;;3.18;71.08
6144;BME280;3103;49.492;8.474;2023-03-04T02:10:21;101235.34;;;3.26;70.84
6144;BME280;3103;49.492;8.474;2023-03-04T02:12:50;101230.31;;;3.32;70.72
6144;BME280;3103;49.492;8.474;2023-03-04T02:15:17;101231.13;;;3.40;70.92
6144;BME280;3103;49.492;8.474;2023-03-04T02:17:44;101227.38;;;3.18;71.37
6144;BME280;3103;49.492;8.474;2023-03-04T02:20:33;101225.22;;;3.22;71.44
6144;BME280;3103;49.492;8.474;2023-03-04T02:23:16;101220.78;;;3.14;71.56
6144;BME280;3103;49.492;8.474;2023-03-04T02:26:05;101217.34;;;2.97;71.81
6144;BME280;3103;49.492;8.474;2023-03-04T02:28:32;101219.78;;;3.07;72.31
6144;BME280;3103;49.492;8.474;2023-03-04T02:30:59;101212.63;;;3.24;71.41
6144;BME280;3103;49.492;8.474;2023-03-04T02:33:27;101211.63;;;3.17;71.88
6144;BME280;3103;49.492;8.474;2023-03-04T02:35:54;101210.16;;;3.14;71.63
6144;BME280;3103;49.492;8.474;2023-03-04T02:38:21;101214.31;;;3.09;72.25
6144;BME280;3103;49.492;8.474;2023-03-04T02:40:50;101219.97;;;3.06;72.24
6144;BME280;3103;49.492;8.474;2023-03-04T02:43:18;101210.81;;;3.16;71.90
6144;BME280;3103;49.492;8.474;2023-03-04T02:45:48;101204.31;;;3.19;72.05
6144;BME280;3103;49.492;8.474;2023-03-04T02:48:19;101207.16;;;3.17;71.85
6144;BME280;3103;49.492;8.474;2023-03-04T02:50:49;101210.69;;;3.10;72.11
6144;BME280;3103;49.492;8.474;2023-03-04T02:53:17;101208.31;;;3.15;71.92
6144;BME280;3103;49.492;8.474;2023-03-04T02:55:44;101210.72;;;3.33;71.58
6144;BME280;3103;49.492;8.474;2023-03-04T02:58:12;101212.81;;;3.14;71.98
6144;BME280;3103;49.492;8.474;2023-03-04T03:00:39;101212.94;;;3.21;71.65
6144;BME280;3103;49.492;8.474;2023-03-04T03:03:07;101214.94;;;3.19;71.44
6144;BME280;3103;49.492;8.474;2023-03-04T03:05:36;101211.03;;;2.98;72.64
6144;BME280;3103;49.492;8.474;2023-03-04T03:08:05;101204.50;;;3.09;72.32
6144;BME280;3103;49.492;8.474;2023-03-04T03:10:32;101199.19;;;3.09;72.38
6144;BME280;3103;49.492;8.474;2023-03-04T03:12:59;101201.53;;;3.12;72.13
6144;BME280;3103;49.492;8.474;2023-03-04T03:15:25;101201.72;;;3.11;72.07
6144;BME280;3103;49.492;8.474;2023-03-04T03:17:54;101200.34;;;3.15;71.68
6144;BME280;3103;49.492;8.474;2023-03-04T03:20:20;101200.84;;;3.18;71.83
6144;BME280;3103;49.492;8.474;2023-03-04T03:22:47;101202.72;;;3.10;71.77
6144;BME280;3103;49.492;8.474;2023-03-04T03:25:15;101197.25;;;2.95;72.10
6144;BME280;3103;49.492;8.474;2023-03-04T03:27:42;101200.72;;;3.04;72.19
6144;BME280;3103;49.492;8.474;2023-03-04T03:30:12;101196.88;;;3.14;71.45
6144;BME280;3103;49.492;8.474;2023-03-04T03:32:39;101205.38;;;3.10;71.96
6144;BME280;3103;49.492;8.474;2023-03-04T03:35:06;101201.91;;;3.01;72.00
6144;BME280;3103;49.492;8.474;2023-03-04T03:37:33;101201.84;;;3.09;71.68
6144;BME280;3103;49.492;8.474;2023-03-04T03:40:00;101204.91;;;2.98;72.88
6144;BME280;3103;49.492;8.474;2023-03-04T03:42:28;101206.72;;;2.97;72.29
6144;BME280;3103;49.492;8.474;2023-03-04T03:44:55;101210.88;;;2.92;72.42
6144;BME280;3103;49.492;8.474;2023-03-04T03:47:22;101206.91;;;2.96;72.67
6144;BME280;3103;49.492;8.474;2023-03-04T03:49:48;101207.38;;;3.00;72.79
6144;BME280;3103;49.492;8.474;2023-03-04T03:52:15;101213.72;;;2.90;72.68
6144;BME280;3103;49.492;8.474;2023-03-04T03:54:42;101207.25;;;2.85;73.31
6144;BME280;3103;49.492;8.474;2023-03-04T03:57:09;101211.75;;;2.84;73.55
6144;BME280;3103;49.492;8.474;2023-03-04T03:59:35;101214.88;;;2.96;73.17
6144;BME280;3103;49.492;8.474;2023-03-04T04:02:02;101217.00;;;2.92;72.59
6144;BME280;3103;49.492;8.474;2023-03-04T04:04:29;101208.91;;;2.86;72.80
6144;BME280;3103;49.492;8.474;2023-03-04T04:06:55;101211.22;;;2.89;73.83
6144;BME280;3103;49.492;8.474;2023-03-04T04:09:22;101207.09;;;2.78;73.70
6144;BME280;3103;49.492;8.474;2023-03-04T04:11:49;101202.78;;;2.85;73.32
6144;BME280;3103;49.492;8.474;2023-03-04T04:14:16;101207.44;;;2.83;72.96
6144;BME280;3103;49.492;8.474;2023-03-04T04:16:42;101204.09;;;2.89;73.10
6144;BME280;3103;49.492;8.474;2023-03-04T04:19:16;101206.44;;;2.76;73.30
6144;BME280;3103;49.492;8.474;2023-03-04T04:21:43;101210.41;;;2.80;73.45
6144;BME280;3103;49.492;8.474;2023-03-04T04:24:10;101206.44;;;2.76;73.70
6144;BME280;3103;49.492;8.474;2023-03-04T04:26:37;101208.44;;;2.74;74.28
6144;BME280;3103;49.492;8.474;2023-03-04T04:29:05;101206.47;;;2.68;74.08
6144;BME280;3103;49.492;8.474;2023-03-04T04:31:32;101213.25;;;2.79;73.79
6144;BME280;3103;49.492;8.474;2023-03-04T04:33:59;101204.31;;;2.72;74.32
6144;BME280;3103;49.492;8.474;2023-03-04T04:36:26;101204.78;;;2.75;73.85
6144;BME280;3103;49.492;8.474;2023-03-04T04:38:53;101212.09;;;2.73;74.25
6144;BME280;3103;49.492;8.474;2023-03-04T04:41:25;101203.66;;;2.70;74.46
6144;BME280;3103;49.492;8.474;2023-03-04T04:43:52;101209.44;;;2.73;74.02
6144;BME280;3103;49.492;8.474;2023-03-04T04:46:19;101210.78;;;2.53;74.64
6144;BME280;3103;49.492;8.474;2023-03-04T04:48:46;101208.13;;;2.69;74.12
6144;BME280;3103;49.492;8.474;2023-03-04T04:51:13;101210.78;;;2.69;74.25
6144;BME280;3103;49.492;8.474;2023-03-04T04:53:40;101215.56;;;2.74;74.29
6144;BME280;3103;49.492;8.474;2023-03-04T04:56:15;101214.28;;;2.61;74.38
6144;BME280;3103;49.492;8.474;2023-03-04T04:58:43;101218.06;;;2.67;74.24
6144;BME280;3103;49.492;8.474;2023-03-04T05:01:10;101209.28;;;2.66;74.40
6144;BME280;3103;49.492;8.474;2023-03-04T05:03:37;101209.44;;;2.65;74.57
6144;BME280;3103;49.492;8.474;2023-03-04T05:06:06;101210.13;;;2.59;74.31
6144;BME280;3103;49.492;8.474;2023-03-04T05:08:34;101216.75;;;2.63;74.08
6144;BME280;3103;49.492;8.474;2023-03-04T05:11:02;101217.25;;;2.75;74.45
6144;BME280;3103;49.492;8.474;2023-03-04T05:13:29;101221.41;;;2.69;74.37
6144;BME280;3103;49.492;8.474;2023-03-04T05:15:56;101216.25;;;2.76;73.91
6144;BME280;3103;49.492;8.474;2023-03-04T05:18:24;101219.72;;;2.76;74.82
6144;BME280;3103;49.492;8.474;2023-03-04T05:20:54;101220.53;;;2.85;74.08
6144;BME280;3103;49.492;8.474;2023-03-04T05:23:21;101215.53;;;2.90;74.37
6144;BME280;3103;49.492;8.474;2023-03-04T05:25:49;101207.72;;;2.96;74.02
6144;BME280;3103;49.492;8.474;2023-03-04T05:28:16;101210.91;;;2.84;73.69
6144;BME280;3103;49.492;8.474;2023-03-04T05:30:44;101206.09;;;2.87;74.26
6144;BME280;3103;49.492;8.474;2023-03-04T05:33:12;101220.19;;;2.96;74.25
6144;BME280;3103;49.492;8.474;2023-03-04T05:35:40;101217.34;;;2.97;73.95
6144;BME280;3103;49.492;8.474;2023-03-04T05:38:10;101216.22;;;2.84;73.57
6144;BME280;3103;49.492;8.474;2023-03-04T05:40:37;101218.31;;;3.05;73.32
6144;BME280;3103;49.492;8.474;2023-03-04T05:43:04;101213.66;;;3.07;73.04
6144;BME280;3103;49.492;8.474;2023-03-04T05:45:31;101212.03;;;2.97;73.18
6144;BME280;3103;49.492;8.474;2023-03-04T05:47:59;101197.78;;;2.98;73.39
6144;BME280;3103;49.492;8.474;2023-03-04T05:50:25;101200.06;;;3.10;73.08
6144;BME280;3103;49.492;8.474;2023-03-04T05:52:53;101202.56;;;3.03;73.32
6144;BME280;3103;49.492;8.474;2023-03-04T05:55:20;101204.50;;;3.09;73.05
6144;BME280;3103;49.492;8.474;2023-03-04T05:57:47;101202.53;;;3.11;73.37
6144;BME280;3103;49.492;8.474;2023-03-04T06:00:15;101206.16;;;3.18;72.63
6144;BME280;3103;49.492;8.474;2023-03-04T06:02:43;101208.97;;;3.17;72.53
6144;BME280;3103;49.492;8.474;2023-03-04T06:05:12;101215.91;;;3.26;72.07
6144;BME280;3103;49.492;8.474;2023-03-04T06:07:39;101215.56;;;3.29;71.75
6144;BME280;3103;49.492;8.474;2023-03-04T06:10:10;101214.31;;;3.09;72.14
6144;BME280;3103;49.492;8.474;2023-03-04T06:12:38;101221.78;;;3.13;72.62
6144;BME280;3103;49.492;8.474;2023-03-04T06:15:05;101215.13;;;3.09;72.45
6144;BME280;3103;49.492;8.474;2023-03-04T06:17:32;101224.88;;;3.25;72.40
6144;BME280;3103;49.492;8.474;2023-03-04T06:19:59;101236.91;;;3.05;72.51
6144;BME280;3103;49.492;8.474;2023-03-04T06:22:26;101239.19;;;3.08;72.99
6144;BME280;3103;49.492;8.474;2023-03-04T06:24:52;101232.47;;;3.36;72.12
6144;BME280;3103;49.492;8.474;2023-03-04T06:27:19;101231.31;;;3.39;71.86
6144;BME280;3103;49.492;8.474;2023-03-04T06:29:46;101229.53;;;3.23;72.29
6144;BME280;3103;49.492;8.474;2023-03-04T06:32:12;101233.16;;;3.30;72.02
6144;BME280;3103;49.492;8.474;2023-03-04T06:34:39;101233.00;;;3.63;70.33
6144;BME280;3103;49.492;8.474;2023-03-04T06:37:06;101243.97;;;3.60;70.84
6144;BME280;3103;49.492;8.474;2023-03-04T06:39:33;101244.59;;;3.70;70.32
6144;BME280;3103;49.492;8.474;2023-03-04T06:41:59;101245.44;;;3.70;70.79
6144;BME280;3103;49.492;8.474;2023-03-04T06:44:26;101235.66;;;3.63;70.83
6144;BME280;3103;49.492;8.474;2023-03-04T06:46:53;101239.88;;;3.49;71.61
6144;BME280;3103;49.492;8.474;2023-03-04T06:49:19;101252.94;;;3.67;70.80
6144;BME280;3103;49.492;8.474;2023-03-04T06:51:46;101246.47;;;3.61;71.66
6144;BME280;3103;49.492;8.474;2023-03-04T06:54:13;101251.31;;;3.57;71.64
6144;BME280;3103;49.492;8.474;2023-03-04T06:56:40;101251.16;;;3.51;71.73
6144;BME280;3103;49.492;8.474;2023-03-04T06:59:07;101253.88;;;3.74;70.80
6144;BME280;3103;49.492;8.474;2023-03-04T07:01:33;101258.97;;;3.83;70.18
6144;BME280;3103;49.492;8.474;2023-03-04T07:04:00;101259.53;;;3.71;71.32
6144;BME280;3103;49.492;8.474;2023-03-04T07:06:28;101274.91;;;3.83;70.78
6144;BME280;3103;49.492;8.474;2023-03-04T07:08:56;101267.16;;;3.74;71.43
6144;BME280;3103;49.492;8.474;2023-03-04T07:11:23;101266.59;;;3.86;71.73
6144;BME280;3103;49.492;8.474;2023-03-04T07:13:51;101267.81;;;3.76;72.30
6144;BME280;3103;49.492;8.474;2023-03-04T07:16:20;101268.53;;;3.62;71.95
6144;BME280;3103;49.492;8.474;2023-03-04T07:18:47;101269.00;;;3.65;72.37
6144;BME280;3103;49.492;8.474;2023-03-04T07:21:15;101273.19;;;3.68;71.97
6144;BME280;3103;49.492;8.474;2023-03-04T07:23:43;101273.50;;;3.65;72.06
6144;BME280;3103;49.492;8.474;2023-03-04T07:26:09;101271.69;;;3.65;72.35
6144;BME280;3103;49.492;8.474;2023-03-04T07:28:36;101279.06;;;3.55;72.48
6144;BME280;3103;49.492;8.474;2023-03-04T07:31:11;101285.31;;;3.62;72.63
6144;BME280;3103;49.492;8.474;2023-03-04T07:33:38;101277.03;;;3.57;72.55
6144;BME280;3103;49.492;8.474;2023-03-04T07:36:05;101282.06;;;3.52;72.65
6144;BME280;3103;49.492;8.474;2023-03-04T07:38:33;101277.72;;;3.51;72.81
6144;BME280;3103;49.492;8.474;2023-03-04T07:41:00;101286.03;;;3.48;72.58
6144;BME280;3103;49.492;8.474;2023-03-04T07:43:27;101288.59;;;3.33;73.06
6144;BME280;3103;49.492;8.474;2023-03-04T07:46:00;101293.38;;;3.38;73.45
6144;BME280;3103;49.492;8.474;2023-03-04T07:48:27;101296.28;;;3.59;72.57
6144;BME280;3103;49.492;8.474;2023-03-04T07:51:14;101297.75;;;3.70;71.27
6144;BME280;3103;49.492;8.474;2023-03-04T07:53:42;101300.59;;;3.68;72.10
6144;BME280;3103;49.492;8.474;2023-03-04T07:56:12;101295.09;;;3.70;71.31
6144;BME280;3103;49.492;8.474;2023-03-04T07:58:39;101302.47;;;3.51;72.01
6144;BME280;3103;49.492;8.474;2023-03-04T08:01:11;101302.44;;;3.60;72.38
6144;BME280;3103;49.492;8.474;2023-03-04T08:03:39;101298.84;;;3.83;71.34
6144;BME280;3103;49.492;8.474;2023-03-04T08:06:07;101301.59;;;3.67;71.53
6144;BME280;3103;49.492;8.474;2023-03-04T08:08:34;101295.94;;;3.93;70.48
6144;BME280;3103;49.492;8.474;2023-03-04T08:11:13;101301.31;;;3.85;70.78
6144;BME280;3103;49.492;8.474;2023-03-04T08:13:40;101301.53;;;3.75;71.63
6144;BME280;3103;49.492;8.474;2023-03-04T08:16:11;101301.75;;;3.66;72.44
6144;BME280;3103;49.492;8.474;2023-03-04T08:18:37;101305.03;;;3.76;71.87
6144;BME280;3103;49.492;8.474;2023-03-04T08:21:10;101305.03;;;3.76;72.20
6144;BME280;3103;49.492;8.474;2023-03-04T08:23:38;101303.09;;;3.62;72.03
6144;BME280;3103;49.492;8.474;2023-03-04T08:26:11;101304.19;;;3.75;72.40
6144;BME280;3103;49.492;8.474;2023-03-04T08:28:38;101299.75;;;3.68;72.45
6144;BME280;3103;49.492;8.474;2023-03-04T08:31:05;101298.66;;;3.85;72.21
6144;BME280;3103;49.492;8.474;2023-03-04T08:33:33;101296.56;;;3.72;72.56
6144;BME280;3103;49.492;8.474;2023-03-04T08:36:00;101304.00;;;3.85;71.79
6144;BME280;3103;49.492;8.474;2023-03-04T08:38:26;101300.69;;;3.83;72.49
6144;BME280;3103;49.492;8.474;2023-03-04T08:40:55;101303.94;;;3.93;72.07
6144;BME280;3103;49.492;8.474;2023-03-04T08:43:22;101309.25;;;3.93;72.36
6144;BME280;3103;49.492;8.474;2023-03-04T08:45:50;101308.84;;;4.04;71.39
6144;BME280;3103;49.492;8.474;2023-03-04T08:48:26;101301.41;;;4.00;71.78
6144;BME280;3103;49.492;8.474;2023-03-04T08:50:53;101309.41;;;3.92;72.17
6144;BME280;3103;49.492;8.474;2023-03-04T08:53:20;101309.25;;;3.93;72.94
6144;BME280;3103;49.492;8.474;2023-03-04T08:55:47;101305.78;;;4.15;72.30
6144;BME280;3103;49.492;8.474;2023-03-04T08:58:14;101304.31;;;4.13;71.57
6144;BME280;3103;49.492;8.474;2023-03-04T09:00:43;101302.66;;;4.12;71.29
6144;BME280;3103;49.492;8.474;2023-03-04T09:03:14;101305.63;;;4.17;71.11
6144;BME280;3103;49.492;8.474;2023-03-04T09:05:43;101305.69;;;4.09;71.89
6144;BME280;3103;49.492;8.474;2023-03-04T09:08:10;101305.84;;;4.07;72.17
6144;BME280;3103;49.492;8.474;2023-03-04T09:10:37;101300.75;;;4.21;71.86
6144;BME280;3103;49.492;8.474;2023-03-04T09:13:04;101312.41;;;4.20;71.87
6144;BME280;3103;49.492;8.474;2023-03-04T09:15:32;101302.97;;;4.40;71.50
6144;BME280;3103;49.492;8.474;2023-03-04T09:18:03;101305.56;;;4.48;71.49
6144;BME280;3103;49.492;8.474;2023-03-04T09:20:31;101311.88;;;4.47;71.71
6144;BME280;3103;49.492;8.474;2023-03-04T09:22:57;101311.38;;;4.52;71.46
6144;BME280;3103;49.492;8.474;2023-03-04T09:25:24;101299.13;;;4.42;71.66
6144;BME280;3103;49.492;8.474;2023-03-04T09:27:51;101310.38;;;4.53;70.69
6144;BME280;3103;49.492;8.474;2023-03-04T09:30:18;101311.28;;;4.60;69.87
6144;BME280;3103;49.492;8.474;2023-03-04T09:32:44;101308.63;;;4.60;70.30
6144;BME280;3103;49.492;8.474;2023-03-04T09:35:11;101305.50;;;4.56;70.99
6144;BME280;3103;49.492;8.474;2023-03-04T09:37:38;101304.28;;;4.44;71.09
6144;BME280;3103;49.492;8.474;2023-03-04T09:40:10;101314.13;;;4.58;71.22
6144;BME280;3103;49.492;8.474;2023-03-04T09:42:50;101306.09;;;4.66;70.55
6144;BME280;3103;49.492;8.474;2023-03-04T09:45:20;101309.63;;;4.59;69.81
6144;BME280;3103;49.492;8.474;2023-03-04T09:47:49;101304.78;;;4.62;70.23
6144;BME280;3103;49.492;8.474;2023-03-04T09:50:19;101316.44;;;4.61;70.37
6144;BME280;3103;49.492;8.474;2023-03-04T09:53:06;101316.28;;;4.77;68.97
6144;BME280;3103;49.492;8.474;2023-03-04T09:55:41;101322.38;;;4.86;68.11
6144;BME280;3103;49.492;8.474;2023-03-04T09:58:30;101318.34;;;4.90;68.44
6144;BME280;3103;49.492;8.474;2023-03-04T10:01:03;101321.56;;;4.86;69.19
6144;BME280;3103;49.492;8.474;2023-03-04T10:06:15;101327.94;;;4.76;68.88
6144;BME280;3103;49.492;8.474;2023-03-04T10:08:51;101321.97;;;4.74;68.44
6144;BME280;3103;49.492;8.474;2023-03-04T10:11:24;101327.84;;;5.07;67.30
6144;BME280;3103;49.492;8.474;2023-03-04T10:19:50;101325.91;;;5.01;66.75
6144;BME280;3103;49.492;8.474;2023-03-04T10:22:26;101325.06;;;5.01;66.77
6144;BME280;3103;49.492;8.474;2023-03-04T10:24:56;101325.88;;;4.87;67.04
6144;BME280;3103;49.492;8.474;2023-03-04T10:27:23;101321.50;;;4.94;67.33
6144;BME280;3103;49.492;8.474;2023-03-04T10:29:51;101323.38;;;5.23;67.25
6144;BME280;3103;49.492;8.474;2023-03-04T10:32:19;101320.78;;;5.15;67.96
6144;BME280;3103;49.492;8.474;2023-03-04T10:34:46;101326.56;;;5.18;68.24
6144;BME280;3103;49.492;8.474;2023-03-04T10:37:13;101316.91;;;5.47;67.55
6144;BME280;3103;49.492;8.474;2023-03-04T10:39:44;101319.41;;;5.33;66.89
6144;BME280;3103;49.492;8.474;2023-03-04T10:44:50;101321.25;;;5.48;66.54
6144;BME280;3103;49.492;8.474;2023-03-04T10:47:17;101318.41;;;5.49;66.62
6144;BME280;3103;49.492;8.474;2023-03-04T10:49:52;101316.66;;;5.42;66.14
6144;BME280;3103;49.492;8.474;2023-03-04T10:52:29;101314.34;;;5.53;65.84
6144;BME280;3103;49.492;8.474;2023-03-04T10:54:59;101313.34;;;5.54;65.30
6144;BME280;3103;49.492;8.474;2023-03-04T10:57:33;101306.19;;;5.40;65.79
6144;BME280;3103;49.492;8.474;2023-03-04T11:00:24;101301.28;;;5.58;65.83
6144;BME280;3103;49.492;8.474;2023-03-04T11:02:51;101297.72;;;5.51;65.14
6144;BME280;3103;49.492;8.474;2023-03-04T11:05:23;101301.66;;;5.70;65.11
6144;BME280;3103;49.492;8.474;2023-03-04T11:07:55;101294.72;;;5.76;64.28
6144;BME280;3103;49.492;8.474;2023-03-04T11:10:29;101292.25;;;5.74;64.92
6144;BME280;3103;49.492;8.474;2023-03-04T11:13:16;101286.66;;;5.69;64.47
6144;BME280;3103;49.492;8.474;2023-03-04T11:15:58;101290.22;;;5.76;64.17
6144;BME280;3103;49.492;8.474;2023-03-04T11:18:43;101282.53;;;5.66;63.81
6144;BME280;3103;49.492;8.474;2023-03-04T11:21:17;101270.56;;;5.77;63.79
6144;BME280;3103;49.492;8.474;2023-03-04T11:23:52;101273.56;;;5.89;63.14
6144;BME280;3103;49.492;8.474;2023-03-04T11:26:49;101269.22;;;5.88;62.70
6144;BME280;3103;49.492;8.474;2023-03-04T11:29:21;101275.06;;;5.91;63.28
6144;BME280;3103;49.492;8.474;2023-03-04T11:31:54;101265.72;;;6.02;62.32
6144;BME280;3103;49.492;8.474;2023-03-04T11:34:47;101262.56;;;5.77;62.20
6144;BME280;3103;49.492;8.474;2023-03-04T11:37:39;101263.06;;;5.66;61.99
6144;BME280;3103;49.492;8.474;2023-03-04T11:40:13;101261.66;;;5.70;62.60
6144;BME280;3103;49.492;8.474;2023-03-04T11:42:58;101260.16;;;5.82;61.78
6144;BME280;3103;49.492;8.474;2023-03-04T11:45:36;101250.94;;;5.85;61.93
6144;BME280;3103;49.492;8.474;2023-03-04T11:48:23;101250.06;;;5.92;61.14
6144;BME280;3103;49.492;8.474;2023-03-04T11:51:06;101254.38;;;5.79;61.44
6144;BME280;3103;49.492;8.474;2023-03-04T11:54:07;101245.97;;;5.97;61.30
6144;BME280;3103;49.492;8.474;2023-03-04T11:56:47;101249.38;;;5.90;61.34
6144;BME280;3103;49.492;8.474;2023-03-04T11:59:35;101248.25;;;6.00;61.67
6144;BME280;3103;49.492;8.474;2023-03-04T12:02:14;101247.81;;;6.17;61.04
6144;BME280;3103;49.492;8.474;2023-03-04T12:05:59;101241.66;;;6.17;60.73
6144;BME280;3103;49.492;8.474;2023-03-04T12:08:09;101235.44;;;6.10;60.24
6144;BME280;3103;49.492;8.474;2023-03-04T12:11:01;101234.66;;;6.16;59.90
6144;BME280;3103;49.492;8.474;2023-03-04T12:16:46;101215.50;;;6.06;60.64
6144;BME280;3103;49.492;8.474;2023-03-04T12:22:07;101217.41;;;6.12;60.66
6144;BME280;3103;49.492;8.474;2023-03-04T12:27:46;101213.94;;;6.18;60.84
6144;BME280;3103;49.492;8.474;2023-03-04T12:36:11;101212.56;;;6.01;60.31
6144;BME280;3103;49.492;8.474;2023-03-04T12:39:18;101206.22;;;6.02;60.77
6144;BME280;3103;49.492;8.474;2023-03-04T12:50:54;101191.81;;;5.96;61.07
6144;BME280;3103;49.492;8.474;2023-03-04T12:54:02;101188.38;;;6.02;61.57
6144;BME280;3103;49.492;8.474;2023-03-04T12:59:05;101186.38;;;6.32;62.14
6144;BME280;3103;49.492;8.474;2023-03-04T13:01:38;101189.69;;;6.13;59.89
6144;BME280;3103;49.492;8.474;2023-03-04T13:07:32;101190.44;;;6.28;59.12
6144;BME280;3103;49.492;8.474;2023-03-04T13:10:12;101187.19;;;6.33;59.79
6144;BME280;3103;49.492;8.474;2023-03-04T13:12:56;101188.28;;;6.17;59.85
6144;BME280;3103;49.492;8.474;2023-03-04T13:17:58;101182.19;;;6.23;59.72
6144;BME280;3103;49.492;8.474;2023-03-04T13:20:40;101172.84;;;6.34;60.45
6144;BME280;3103;49.492;8.474;2023-03-04T13:30:40;101169.31;;;6.33;59.62
6144;BME280;3103;49.492;8.474;2023-03-04T13:41:12;101165.66;;;6.34;59.33
6144;BME280;3103;49.492;8.474;2023-03-04T13:43:56;101152.97;;;6.15;60.04
6144;BME280;3103;49.492;8.474;2023-03-04T13:51:28;101149.66;;;6.34;59.58
6144;BME280;3103;49.492;8.474;2023-03-04T14:01:34;101136.75;;;6.44;60.02
6144;BME280;3103;49.492;8.474;2023-03-04T14:04:20;101136.38;;;6.47;59.38
6144;BME280;3103;49.492;8.474;2023-03-04T14:06:49;101142.00;;;6.31;60.06
6144;BME280;3103;49.492;8.474;2023-03-04T14:09:20;101137.31;;;6.33;61.10
6144;BME280;3103;49.492;8.474;2023-03-04T14:11:49;101130.59;;;6.44;60.14
6144;BME280;3103;49.492;8.474;2023-03-04T14:14:23;101132.88;;;6.19;60.26
6144;BME280;3103;49.492;8.474;2023-03-04T14:16:59;101126.16;;;6.23;60.19
6144;BME280;3103;49.492;8.474;2023-03-04T14:19:29;101130.78;;;6.36;60.88
6144;BME280;3103;49.492;8.474;2023-03-04T14:21:58;101132.22;;;6.38;60.48
6144;BME280;3103;49.492;8.474;2023-03-04T14:24:25;101125.19;;;6.31;60.77
6144;BME280;3103;49.492;8.474;2023-03-04T14:27:09;101126.69;;;6.12;60.86
6144;BME280;3103;49.492;8.474;2023-03-04T14:29:37;101117.47;;;6.14;61.05
6144;BME280;3103;49.492;8.474;2023-03-04T14:32:04;101125.38;;;6.29;61.51
6144;BME280;3103;49.492;8.474;2023-03-04T14:34:35;101118.25;;;6.36;60.81
6144;BME280;3103;49.492;8.474;2023-03-04T14:37:18;101119.09;;;6.43;61.04
6144;BME280;3103;49.492;8.474;2023-03-04T14:39:48;101106.47;;;6.59;60.06
6144;BME280;3103;49.492;8.474;2023-03-04T14:42:16;101111.50;;;6.40;60.82
6144;BME280;3103;49.492;8.474;2023-03-04T14:44:47;101109.69;;;6.47;60.67
6144;BME280;3103;49.492;8.474;2023-03-04T14:47:19;101099.94;;;6.68;59.55
6144;BME280;3103;49.492;8.474;2023-03-04T14:49:49;101102.63;;;6.74;58.76
6144;BME280;3103;49.492;8.474;2023-03-04T14:52:36;101090.09;;;6.68;59.67
6144;BME280;3103;49.492;8.474;2023-03-04T14:55:19;101093.19;;;6.72;59.32